sensor_id;sensor_type;location;lat;lon;timestamp;P1;durP1;ratioP1;P2;durP2;ratioP2
75104;SDS011;63688;47.314;8.466;2022-10-30T07:54:09;3.42;;;2.15;;
75104;SDS011;63688;47.314;8.466;2022-10-30T07:59:52;6.22;;;3.70;;
75104;SDS011;63688;47.314;8.466;2022-10-30T08:05:35;6.40;;;3.28;;
75104;SDS011;63688;47.314;8.466;2022-10-30T08:08:26;7.28;;;3.00;;
75104;SDS011;63688;47.314;8.466;2022-10-30T08:14:09;6.53;;;2.83;;
75104;SDS011;63688;47.314;8.466;2022-10-30T08:19:47;4.63;;;2.67;;
75104;SDS011;63688;47.314;8.466;2022-10-30T08:25:37;4.07;;;2.60;;
75104;SDS011;63688;47.314;8.466;2022-10-30T08:28:09;3.70;;;2.40;;
75104;SDS011;63688;47.314;8.466;2022-10-30T08:30:43;4.35;;;2.85;;
75104;SDS011;63688;47.314;8.466;2022-10-30T08:36:09;5.07;;;2.63;;
75104;SDS011;63688;47.314;8.466;2022-10-30T08:41:57;4.20;;;2.55;;
75104;SDS011;63688;47.314;8.466;2022-10-30T08:47:41;4.30;;;2.40;;
75104;SDS011;63688;47.314;8.466;2022-10-30T08:50:13;3.50;;;2.20;;
75104;SDS011;63688;47.314;8.466;2022-10-30T09:35:06;3.15;;;2.13;;
75104;SDS011;63688;47.314;8.466;2022-10-30T09:40:54;5.22;;;2.20;;
75104;SDS011;63688;47.314;8.466;2022-10-30T09:43:42;3.92;;;2.42;;
75104;SDS011;63688;47.314;8.466;2022-10-30T09:56:30;10.30;;;5.00;;
75104;SDS011;63688;47.314;8.466;2022-10-30T10:21:35;14.27;;;6.47;;
75104;SDS011;63688;47.314;8.466;2022-10-30T10:24:14;15.27;;;6.43;;
75104;SDS011;63688;47.314;8.466;2022-10-30T10:26:51;21.45;;;9.40;;
75104;SDS011;63688;47.314;8.466;2022-10-30T10:29:34;12.90;;;6.13;;
75104;SDS011;63688;47.314;8.466;2022-10-30T10:32:31;14.48;;;6.75;;
75104;SDS011;63688;47.314;8.466;2022-10-30T10:35:20;11.45;;;6.15;;
75104;SDS011;63688;47.314;8.466;2022-10-30T10:38:06;14.27;;;6.55;;
75104;SDS011;63688;47.314;8.466;2022-10-30T10:40:50;14.30;;;6.70;;
75104;SDS011;63688;47.314;8.466;2022-10-30T10:43:32;14.45;;;6.88;;
75104;SDS011;63688;47.314;8.466;2022-10-30T10:46:17;18.67;;;7.30;;
75104;SDS011;63688;47.314;8.466;2022-10-30T10:49:06;13.95;;;6.63;;
75104;SDS011;63688;47.314;8.466;2022-10-30T10:51:46;21.42;;;6.70;;
75104;SDS011;63688;47.314;8.466;2022-10-30T10:54:28;14.73;;;6.72;;
75104;SDS011;63688;47.314;8.466;2022-10-30T10:57:06;15.07;;;7.03;;
75104;SDS011;63688;47.314;8.466;2022-10-30T10:59:42;14.95;;;6.65;;
75104;SDS011;64778;47.314;8.466;2022-10-30T11:46:33;24.80;;;7.47;;
75104;SDS011;64778;47.314;8.466;2022-10-30T11:49:08;18.13;;;8.68;;
75104;SDS011;64778;47.314;8.466;2022-10-30T11:51:55;15.35;;;7.60;;
75104;SDS011;64778;47.314;8.466;2022-10-30T11:54:26;22.48;;;8.77;;
75104;SDS011;64778;47.314;8.466;2022-10-30T11:57:04;19.73;;;8.90;;
75104;SDS011;64778;47.314;8.466;2022-10-30T11:59:48;20.85;;;8.68;;
75104;SDS011;64778;47.314;8.466;2022-10-30T12:02:24;19.40;;;9.75;;
75104;SDS011;64778;47.314;8.466;2022-10-30T12:04:59;15.65;;;9.05;;
75104;SDS011;64778;47.314;8.466;2022-10-30T12:07:32;20.23;;;9.88;;
75104;SDS011;64778;47.314;8.466;2022-10-30T12:10:03;19.88;;;9.57;;
75104;SDS011;64778;47.314;8.466;2022-10-30T12:13:02;19.88;;;10.25;;
75104;SDS011;64778;47.314;8.466;2022-10-30T12:15:37;23.63;;;9.82;;
75104;SDS011;64778;47.314;8.466;2022-10-30T12:18:14;19.02;;;9.52;;
75104;SDS011;64778;47.314;8.466;2022-10-30T12:20:52;22.55;;;10.45;;
75104;SDS011;64778;47.314;8.466;2022-10-30T12:23:24;20.25;;;10.68;;
75104;SDS011;64778;47.314;8.466;2022-10-30T12:25:58;19.10;;;10.38;;
75104;SDS011;64778;47.314;8.466;2022-10-30T12:28:36;19.17;;;10.65;;
75104;SDS011;64778;47.314;8.466;2022-10-30T12:31:09;18.33;;;9.80;;
75104;SDS011;64778;47.314;8.466;2022-10-30T12:33:45;18.47;;;10.43;;
75104;SDS011;64778;47.314;8.466;2022-10-30T12:36:19;17.65;;;10.38;;
75104;SDS011;64778;47.314;8.466;2022-10-30T12:38:54;16.92;;;8.93;;
75104;SDS011;64778;47.314;8.466;2022-10-30T12:44:12;22.92;;;10.18;;
75104;SDS011;64778;47.314;8.466;2022-10-30T12:46:47;17.23;;;9.43;;
75104;SDS011;64778;47.314;8.466;2022-10-30T12:49:23;24.35;;;10.13;;
75104;SDS011;64778;47.314;8.466;2022-10-30T12:51:59;17.83;;;8.95;;
75104;SDS011;64778;47.314;8.466;2022-10-30T12:54:38;15.80;;;9.63;;
75104;SDS011;64778;47.314;8.466;2022-10-30T12:57:16;17.50;;;10.20;;
75104;SDS011;64778;47.314;8.466;2022-10-30T12:59:58;18.27;;;8.82;;
75104;SDS011;64778;47.314;8.466;2022-10-30T13:02:37;18.00;;;9.68;;
75104;SDS011;64778;47.314;8.466;2022-10-30T13:05:23;23.90;;;10.32;;
75104;SDS011;64778;47.314;8.466;2022-10-30T13:08:09;17.75;;;9.60;;
75104;SDS011;64778;47.314;8.466;2022-10-30T13:10:48;24.05;;;9.18;;
75104;SDS011;64778;47.314;8.466;2022-10-30T13:13:23;17.67;;;9.25;;
75104;SDS011;64778;47.314;8.466;2022-10-30T13:16:05;16.85;;;8.65;;
75104;SDS011;64778;47.314;8.466;2022-10-30T13:18:42;15.07;;;8.75;;
75104;SDS011;64778;47.314;8.466;2022-10-30T13:21:15;13.75;;;8.48;;
75104;SDS011;64778;47.314;8.466;2022-10-30T13:23:54;21.90;;;8.35;;
75104;SDS011;64778;47.314;8.466;2022-10-30T13:26:33;17.13;;;9.10;;
75104;SDS011;64778;47.314;8.466;2022-10-30T13:29:12;14.40;;;9.10;;
75104;SDS011;64778;47.314;8.466;2022-10-30T13:31:57;18.10;;;9.57;;
75104;SDS011;64778;47.314;8.466;2022-10-30T13:34:39;17.88;;;9.63;;
75104;SDS011;64778;47.314;8.466;2022-10-30T13:37:17;20.85;;;9.00;;
75104;SDS011;64778;47.314;8.466;2022-10-30T13:39:59;17.20;;;9.45;;
75104;SDS011;64778;47.314;8.466;2022-10-30T13:42:43;21.40;;;10.30;;
75104;SDS011;64778;47.314;8.466;2022-10-30T13:45:30;17.52;;;8.93;;
75104;SDS011;64778;47.314;8.466;2022-10-30T13:48:29;19.10;;;9.50;;
75104;SDS011;64778;47.314;8.466;2022-10-30T13:51:15;23.10;;;9.68;;
75104;SDS011;64778;47.314;8.466;2022-10-30T13:53:59;22.75;;;9.98;;
75104;SDS011;64778;47.314;8.466;2022-10-30T13:56:35;23.15;;;9.50;;
75104;SDS011;64778;47.314;8.466;2022-10-30T13:59:14;14.93;;;9.40;;
75104;SDS011;64778;47.314;8.466;2022-10-30T14:02:06;15.45;;;9.40;;
75104;SDS011;64778;47.314;8.466;2022-10-30T14:04:52;17.92;;;9.57;;
75104;SDS011;64778;47.314;8.466;2022-10-30T14:07:29;17.77;;;9.40;;
75104;SDS011;64778;47.314;8.466;2022-10-30T14:10:07;16.88;;;9.25;;
75104;SDS011;64778;47.314;8.466;2022-10-30T14:12:45;14.35;;;8.88;;
75104;SDS011;64778;47.314;8.466;2022-10-30T14:21:27;17.90;;;8.70;;
75104;SDS011;64778;47.314;8.466;2022-10-30T14:24:12;16.88;;;8.32;;
75104;SDS011;64778;47.314;8.466;2022-10-30T14:26:50;17.42;;;8.45;;
75104;SDS011;64778;47.314;8.466;2022-10-30T14:29:30;14.38;;;8.50;;
75104;SDS011;64778;47.314;8.466;2022-10-30T14:32:34;16.80;;;8.35;;
75104;SDS011;64778;47.314;8.466;2022-10-30T14:43:59;13.95;;;8.20;;
75104;SDS011;64778;47.314;8.466;2022-10-30T14:46:47;16.55;;;8.38;;
75104;SDS011;64778;47.314;8.466;2022-10-30T14:49:45;15.73;;;9.05;;
75104;SDS011;64778;47.314;8.466;2022-10-30T14:52:27;13.07;;;7.57;;
75104;SDS011;64778;47.314;8.466;2022-10-30T14:55:19;19.70;;;8.02;;
75104;SDS011;64778;47.314;8.466;2022-10-30T15:00:47;16.35;;;7.22;;
75104;SDS011;64778;47.314;8.466;2022-10-30T15:03:29;17.00;;;7.70;;
75104;SDS011;64778;47.314;8.466;2022-10-30T15:06:13;15.23;;;7.72;;
75104;SDS011;64778;47.314;8.466;2022-10-30T15:12:04;17.00;;;7.90;;
75104;SDS011;64778;47.314;8.466;2022-10-30T15:14:43;23.85;;;11.55;;
75104;SDS011;64778;47.314;8.466;2022-10-30T15:17:18;20.60;;;10.85;;
75104;SDS011;64778;47.314;8.466;2022-10-30T15:19:56;18.48;;;10.32;;
75104;SDS011;64778;47.314;8.466;2022-10-30T15:22:32;15.50;;;7.28;;
75104;SDS011;64778;47.314;8.466;2022-10-30T15:25:04;13.75;;;7.13;;
75104;SDS011;64778;47.314;8.466;2022-10-30T15:27:51;19.05;;;8.00;;
75104;SDS011;64778;47.314;8.466;2022-10-30T15:30:26;14.15;;;7.65;;
75104;SDS011;64778;47.314;8.466;2022-10-30T15:32:57;16.05;;;9.07;;
75104;SDS011;64778;47.314;8.466;2022-10-30T15:35:29;19.90;;;8.63;;
75104;SDS011;64778;47.314;8.466;2022-10-30T15:38:01;14.45;;;8.50;;
75104;SDS011;64778;47.314;8.466;2022-10-30T15:40:34;15.73;;;7.25;;
75104;SDS011;64778;47.314;8.466;2022-10-30T15:43:12;14.80;;;7.30;;
75104;SDS011;64778;47.314;8.466;2022-10-30T15:45:45;15.50;;;7.80;;
75104;SDS011;64778;47.314;8.466;2022-10-30T15:48:20;12.18;;;7.43;;
75104;SDS011;64778;47.314;8.466;2022-10-30T15:50:57;37.58;;;23.42;;
75104;SDS011;64778;47.314;8.466;2022-10-30T15:53:32;33.80;;;19.85;;
75104;SDS011;64778;47.314;8.466;2022-10-30T15:56:11;17.40;;;10.98;;
75104;SDS011;64778;47.314;8.466;2022-10-30T15:58:54;34.17;;;20.23;;
75104;SDS011;64778;47.314;8.466;2022-10-30T16:01:29;24.73;;;13.57;;
75104;SDS011;64778;47.314;8.466;2022-10-30T16:04:03;19.45;;;9.45;;
75104;SDS011;64778;47.314;8.466;2022-10-30T16:06:47;23.27;;;10.95;;
75104;SDS011;64778;47.314;8.466;2022-10-30T16:09:20;19.48;;;10.40;;
75104;SDS011;64778;47.314;8.466;2022-10-30T16:11:52;23.48;;;10.05;;
75104;SDS011;64778;47.314;8.466;2022-10-30T16:14:30;20.17;;;9.07;;
75104;SDS011;64778;47.314;8.466;2022-10-30T16:17:02;17.58;;;8.40;;
75104;SDS011;64778;47.314;8.466;2022-10-30T16:19:34;17.25;;;8.82;;
75104;SDS011;64778;47.314;8.466;2022-10-30T16:22:12;17.23;;;7.78;;
75104;SDS011;64778;47.314;8.466;2022-10-30T16:24:49;18.15;;;8.18;;
75104;SDS011;64778;47.314;8.466;2022-10-30T16:27:21;35.40;;;19.23;;
75104;SDS011;64778;47.314;8.466;2022-10-30T16:29:59;21.13;;;9.18;;
75104;SDS011;64778;47.314;8.466;2022-10-30T16:32:31;14.00;;;7.68;;
75104;SDS011;64778;47.314;8.466;2022-10-30T16:35:03;13.70;;;7.20;;
75104;SDS011;64778;47.314;8.466;2022-10-30T16:37:37;15.90;;;7.45;;
75104;SDS011;64778;47.314;8.466;2022-10-30T16:40:11;17.25;;;7.53;;
75104;SDS011;64778;47.314;8.466;2022-10-30T16:42:44;17.77;;;7.25;;
75104;SDS011;64778;47.314;8.466;2022-10-30T16:45:44;11.80;;;7.20;;
75104;SDS011;64778;47.314;8.466;2022-10-30T16:48:26;17.02;;;8.20;;
75104;SDS011;64778;47.314;8.466;2022-10-30T16:51:00;14.20;;;7.22;;
75104;SDS011;64778;47.314;8.466;2022-10-30T16:53:32;16.58;;;6.95;;
75104;SDS011;64778;47.314;8.466;2022-10-30T16:56:04;18.17;;;9.82;;
75104;SDS011;64778;47.314;8.466;2022-10-30T16:58:48;19.92;;;9.50;;
75104;SDS011;64778;47.314;8.466;2022-10-30T17:01:27;14.13;;;6.75;;
75104;SDS011;64778;47.314;8.466;2022-10-30T17:03:59;13.68;;;6.50;;
75104;SDS011;64778;47.314;8.466;2022-10-30T17:06:35;13.65;;;7.30;;
75104;SDS011;64778;47.314;8.466;2022-10-30T17:09:14;11.65;;;6.65;;
75104;SDS011;64778;47.314;8.466;2022-10-30T17:12:03;16.75;;;6.82;;
75104;SDS011;64778;47.314;8.466;2022-10-30T17:14:53;15.75;;;6.68;;
75104;SDS011;64778;47.314;8.466;2022-10-30T17:17:37;15.82;;;6.38;;
75104;SDS011;64778;47.314;8.466;2022-10-30T17:20:13;17.52;;;5.43;;
75104;SDS011;64778;47.314;8.466;2022-10-30T17:23:03;11.38;;;5.25;;
75104;SDS011;64778;47.314;8.466;2022-10-30T17:25:37;16.98;;;5.57;;
75104;SDS011;64778;47.314;8.466;2022-10-30T17:28:21;12.30;;;6.72;;
75104;SDS011;64778;47.314;8.466;2022-10-30T17:30:55;23.40;;;10.27;;
75104;SDS011;64778;47.314;8.466;2022-10-30T17:33:36;17.77;;;6.97;;
75104;SDS011;64778;47.314;8.466;2022-10-30T17:36:07;17.23;;;6.50;;
75104;SDS011;64778;47.314;8.466;2022-10-30T17:38:39;12.02;;;5.80;;
75104;SDS011;64778;47.314;8.466;2022-10-30T17:41:10;11.95;;;5.40;;
75104;SDS011;64778;47.314;8.466;2022-10-30T17:43:47;13.68;;;6.10;;
75104;SDS011;64778;47.314;8.466;2022-10-30T17:46:21;12.65;;;4.90;;
75104;SDS011;64778;47.314;8.466;2022-10-30T17:48:58;11.65;;;5.43;;
75104;SDS011;64778;47.314;8.466;2022-10-30T17:51:29;13.23;;;5.75;;
75104;SDS011;64778;47.314;8.466;2022-10-30T17:54:01;15.35;;;6.25;;
75104;SDS011;64778;47.314;8.466;2022-10-30T17:56:32;17.98;;;6.78;;
75104;SDS011;64778;47.314;8.466;2022-10-30T17:59:04;23.77;;;7.82;;
75104;SDS011;64778;47.314;8.466;2022-10-30T18:01:35;19.55;;;9.00;;
75104;SDS011;64778;47.314;8.466;2022-10-30T18:04:14;25.45;;;13.13;;
75104;SDS011;64778;47.314;8.466;2022-10-30T18:06:46;31.70;;;12.85;;
75104;SDS011;64778;47.314;8.466;2022-10-30T18:09:18;25.52;;;12.20;;
75104;SDS011;64778;47.314;8.466;2022-10-30T18:11:49;16.45;;;8.05;;
75104;SDS011;64778;47.314;8.466;2022-10-30T18:14:21;15.52;;;5.82;;
75104;SDS011;64778;47.314;8.466;2022-10-30T18:16:52;14.05;;;4.90;;
75104;SDS011;64778;47.314;8.466;2022-10-30T18:19:29;16.50;;;5.00;;
75104;SDS011;64778;47.314;8.466;2022-10-30T18:24:31;16.63;;;6.50;;
75104;SDS011;64778;47.314;8.466;2022-10-30T18:27:02;20.92;;;7.60;;
75104;SDS011;64778;47.314;8.466;2022-10-30T18:29:34;30.00;;;9.45;;
75104;SDS011;64778;47.314;8.466;2022-10-30T18:32:07;22.83;;;7.75;;
75104;SDS011;64778;47.314;8.466;2022-10-30T18:34:44;41.65;;;17.35;;
75104;SDS011;64778;47.314;8.466;2022-10-30T18:39:46;17.60;;;5.50;;
75104;SDS011;64778;47.314;8.466;2022-10-30T18:42:18;13.50;;;4.05;;
75104;SDS011;64778;47.314;8.466;2022-10-30T18:44:49;13.15;;;4.97;;
75104;SDS011;64778;47.314;8.466;2022-10-30T18:47:21;14.70;;;5.78;;
75104;SDS011;64778;47.314;8.466;2022-10-30T18:49:57;19.77;;;8.40;;
75104;SDS011;64778;47.314;8.466;2022-10-30T18:55:00;13.50;;;5.63;;
75104;SDS011;64778;47.314;8.466;2022-10-30T18:57:31;17.25;;;6.00;;
75104;SDS011;64778;47.314;8.466;2022-10-30T19:00:03;22.00;;;7.38;;
75104;SDS011;64778;47.314;8.466;2022-10-30T19:02:34;15.63;;;6.88;;
75104;SDS011;64778;47.314;8.466;2022-10-30T19:05:17;17.48;;;6.65;;
75104;SDS011;64778;47.314;8.466;2022-10-30T19:07:59;20.50;;;7.40;;
75104;SDS011;64778;47.314;8.466;2022-10-30T19:10:32;18.65;;;7.95;;
75104;SDS011;64778;47.314;8.466;2022-10-30T19:13:08;16.10;;;7.80;;
75104;SDS011;64778;47.314;8.466;2022-10-30T19:15:44;20.52;;;7.78;;
75104;SDS011;64778;47.314;8.466;2022-10-30T19:18:17;15.93;;;6.80;;
75104;SDS011;64778;47.314;8.466;2022-10-30T19:20:55;16.35;;;5.18;;
75104;SDS011;64778;47.314;8.466;2022-10-30T19:23:26;15.10;;;5.72;;
75104;SDS011;64778;47.314;8.466;2022-10-30T19:25:58;16.48;;;5.22;;
75104;SDS011;64778;47.314;8.466;2022-10-30T19:28:29;12.75;;;3.78;;
75104;SDS011;64778;47.314;8.466;2022-10-30T19:31:02;14.73;;;4.28;;
75104;SDS011;64778;47.314;8.466;2022-10-30T19:33:33;12.43;;;3.83;;
75104;SDS011;64778;47.314;8.466;2022-10-30T19:39:00;13.65;;;4.35;;
75104;SDS011;64778;47.314;8.466;2022-10-30T19:41:32;12.23;;;3.60;;
75104;SDS011;64778;47.314;8.466;2022-10-30T19:44:04;13.90;;;3.95;;
75104;SDS011;64778;47.314;8.466;2022-10-30T19:46:35;14.13;;;4.15;;
75104;SDS011;64778;47.314;8.466;2022-10-30T19:49:15;11.98;;;3.95;;
75104;SDS011;64778;47.314;8.466;2022-10-30T19:51:52;15.90;;;3.60;;
75104;SDS011;64778;47.314;8.466;2022-10-30T19:56:55;15.13;;;6.70;;
75104;SDS011;64778;47.314;8.466;2022-10-30T19:59:27;14.02;;;6.10;;
75104;SDS011;64778;47.314;8.466;2022-10-30T20:01:58;15.55;;;6.78;;
75104;SDS011;64778;47.314;8.466;2022-10-30T20:04:30;18.50;;;5.75;;
75104;SDS011;64778;47.314;8.466;2022-10-30T20:07:07;15.20;;;6.22;;
75104;SDS011;64778;47.314;8.466;2022-10-30T20:09:38;17.10;;;5.68;;
75104;SDS011;64778;47.314;8.466;2022-10-30T20:12:10;16.92;;;6.50;;
75104;SDS011;64778;47.314;8.466;2022-10-30T20:14:41;15.60;;;6.50;;
75104;SDS011;64778;47.314;8.466;2022-10-30T20:17:12;14.50;;;5.03;;
75104;SDS011;64778;47.314;8.466;2022-10-30T20:19:44;10.05;;;4.28;;
75104;SDS011;64778;47.314;8.466;2022-10-30T20:22:20;14.27;;;5.30;;
75104;SDS011;64778;47.314;8.466;2022-10-30T20:27:23;12.10;;;4.18;;
75104;SDS011;64778;47.314;8.466;2022-10-30T20:29:54;17.52;;;6.32;;
75104;SDS011;64778;47.314;8.466;2022-10-30T20:32:26;15.88;;;6.10;;
75104;SDS011;64778;47.314;8.466;2022-10-30T20:34:58;17.48;;;7.35;;
75104;SDS011;64778;47.314;8.466;2022-10-30T20:37:34;34.50;;;16.23;;
75104;SDS011;64778;47.314;8.466;2022-10-30T20:42:41;16.45;;;7.85;;
75104;SDS011;64778;47.314;8.466;2022-10-30T20:45:14;14.65;;;6.50;;
75104;SDS011;64778;47.314;8.466;2022-10-30T20:47:48;20.83;;;8.68;;
75104;SDS011;64778;47.314;8.466;2022-10-30T20:50:20;14.60;;;6.28;;
75104;SDS011;64778;47.314;8.466;2022-10-30T20:52:57;19.60;;;7.03;;
75104;SDS011;64778;47.314;8.466;2022-10-30T20:57:59;18.73;;;9.65;;
75104;SDS011;64778;47.314;8.466;2022-10-30T21:00:30;22.50;;;8.50;;
75104;SDS011;64778;47.314;8.466;2022-10-30T21:03:02;20.77;;;8.20;;
75104;SDS011;64778;47.314;8.466;2022-10-30T21:05:34;16.20;;;7.07;;
75104;SDS011;64778;47.314;8.466;2022-10-30T21:08:12;18.17;;;7.47;;
75104;SDS011;64778;47.314;8.466;2022-10-30T21:10:43;21.05;;;8.25;;
75104;SDS011;64778;47.314;8.466;2022-10-30T21:13:14;17.83;;;7.10;;
75104;SDS011;64778;47.314;8.466;2022-10-30T21:15:46;15.80;;;6.40;;
75104;SDS011;64778;47.314;8.466;2022-10-30T21:18:17;15.70;;;6.05;;
75104;SDS011;64778;47.314;8.466;2022-10-30T21:20:49;11.48;;;5.00;;
75104;SDS011;64778;47.314;8.466;2022-10-30T21:23:25;22.08;;;11.05;;
75104;SDS011;64778;47.314;8.466;2022-10-30T21:28:28;16.27;;;6.72;;
75104;SDS011;64778;47.314;8.466;2022-10-30T21:31:00;15.18;;;7.57;;
75104;SDS011;64778;47.314;8.466;2022-10-30T21:33:32;15.82;;;7.65;;
75104;SDS011;64778;47.314;8.466;2022-10-30T21:36:05;19.15;;;8.18;;
75104;SDS011;64778;47.314;8.466;2022-10-30T21:38:45;21.17;;;7.70;;
75104;SDS011;64778;47.314;8.466;2022-10-30T21:41:17;19.08;;;8.27;;
75104;SDS011;64778;47.314;8.466;2022-10-30T21:43:50;21.33;;;8.45;;
75104;SDS011;64778;47.314;8.466;2022-10-30T21:46:23;27.17;;;8.13;;
75104;SDS011;64778;47.314;8.466;2022-10-30T21:49:00;20.65;;;7.68;;
75104;SDS011;64778;47.314;8.466;2022-10-30T21:51:33;21.52;;;8.38;;
75104;SDS011;64778;47.314;8.466;2022-10-30T21:54:09;17.63;;;8.05;;
75104;SDS011;64778;47.314;8.466;2022-10-30T21:56:42;15.32;;;7.07;;
75104;SDS011;64778;47.314;8.466;2022-10-30T21:59:14;15.60;;;8.13;;
75104;SDS011;64778;47.314;8.466;2022-10-30T22:01:46;17.50;;;8.07;;
75104;SDS011;64778;47.314;8.466;2022-10-30T22:04:17;19.50;;;8.27;;
75104;SDS011;64778;47.314;8.466;2022-10-30T22:06:49;17.85;;;8.80;;
75104;SDS011;64778;47.314;8.466;2022-10-30T22:09:25;20.30;;;10.05;;
75104;SDS011;64778;47.314;8.466;2022-10-30T22:14:28;15.13;;;8.32;;
75104;SDS011;64778;47.314;8.466;2022-10-30T22:16:59;18.23;;;7.60;;
75104;SDS011;64778;47.314;8.466;2022-10-30T22:19:30;14.07;;;7.22;;
75104;SDS011;64778;47.314;8.466;2022-10-30T22:22:02;22.20;;;7.93;;
75104;SDS011;64778;47.314;8.466;2022-10-30T22:24:38;16.02;;;7.20;;
75104;SDS011;64778;47.314;8.466;2022-10-30T22:27:10;17.50;;;6.43;;
75104;SDS011;64778;47.314;8.466;2022-10-30T22:29:41;16.30;;;6.80;;
75104;SDS011;64778;47.314;8.466;2022-10-30T22:32:12;15.65;;;6.30;;
75104;SDS011;64778;47.314;8.466;2022-10-30T22:34:44;17.55;;;6.63;;
75104;SDS011;64778;47.314;8.466;2022-10-30T22:37:15;17.65;;;6.47;;
75104;SDS011;64778;47.314;8.466;2022-10-30T22:39:52;12.57;;;5.95;;
75104;SDS011;64778;47.314;8.466;2022-10-30T22:44:54;14.60;;;4.90;;
75104;SDS011;64778;47.314;8.466;2022-10-30T22:47:26;15.02;;;5.97;;
75104;SDS011;64778;47.314;8.466;2022-10-30T22:49:57;12.90;;;4.75;;
75104;SDS011;64778;47.314;8.466;2022-10-30T22:52:28;16.83;;;4.93;;
75104;SDS011;64778;47.314;8.466;2022-10-30T22:55:05;12.93;;;5.25;;
75104;SDS011;64778;47.314;8.466;2022-10-30T22:57:37;20.15;;;5.57;;
75104;SDS011;64778;47.314;8.466;2022-10-30T23:00:09;13.00;;;4.93;;
75104;SDS011;64778;47.314;8.466;2022-10-30T23:02:41;17.60;;;6.78;;
75104;SDS011;64778;47.314;8.466;2022-10-30T23:05:13;15.70;;;6.30;;
75104;SDS011;64778;47.314;8.466;2022-10-30T23:07:45;12.43;;;5.50;;
75104;SDS011;64778;47.314;8.466;2022-10-30T23:10:21;9.82;;;5.40;;
75104;SDS011;64778;47.314;8.466;2022-10-30T23:12:53;13.27;;;5.70;;
75104;SDS011;64778;47.314;8.466;2022-10-30T23:15:25;19.02;;;5.22;;
75104;SDS011;64778;47.314;8.466;2022-10-30T23:17:58;14.02;;;5.60;;
75104;SDS011;64778;47.314;8.466;2022-10-30T23:20:29;8.98;;;5.07;;
75104;SDS011;64778;47.314;8.466;2022-10-30T23:23:02;11.00;;;5.13;;
75104;SDS011;64778;47.314;8.466;2022-10-30T23:25:39;12.95;;;4.75;;
75104;SDS011;64778;47.314;8.466;2022-10-30T23:28:10;11.40;;;5.13;;
75104;SDS011;64778;47.314;8.466;2022-10-30T23:30:42;17.52;;;5.38;;
75104;SDS011;64778;47.314;8.466;2022-10-30T23:33:13;15.38;;;5.63;;
75104;SDS011;64778;47.314;8.466;2022-10-30T23:35:45;10.30;;;4.40;;
75104;SDS011;64778;47.314;8.466;2022-10-30T23:38:16;11.43;;;4.70;;
75104;SDS011;64778;47.314;8.466;2022-10-30T23:40:52;11.15;;;4.63;;
75104;SDS011;64778;47.314;8.466;2022-10-30T23:45:55;14.45;;;4.57;;
75104;SDS011;64778;47.314;8.466;2022-10-30T23:48:26;11.10;;;5.70;;
75104;SDS011;64778;47.314;8.466;2022-10-30T23:50:58;17.17;;;6.38;;
75104;SDS011;64778;47.314;8.466;2022-10-30T23:53:34;13.75;;;5.50;;
75104;SDS011;64778;47.314;8.466;2022-10-30T23:56:11;15.93;;;6.70;;
75104;SDS011;64778;47.314;8.466;2022-10-30T23:58:43;14.80;;;6.05;;
